createdAt,value
2022-11-16T00:01:32.233Z,11.00
2022-11-16T00:04:01.203Z,11.10
2022-11-16T00:06:28.816Z,11.00
2022-11-16T00:09:17.264Z,11.00
2022-11-16T00:11:44.027Z,11.00
2022-11-16T00:14:10.938Z,11.10
2022-11-16T00:16:37.882Z,11.00
2022-11-16T00:19:05.857Z,11.00
2022-11-16T00:21:33.148Z,11.00
2022-11-16T00:24:00.771Z,11.00
2022-11-16T00:26:27.540Z,11.00
2022-11-16T00:28:55.229Z,11.00
2022-11-16T00:31:22.891Z,11.00
2022-11-16T00:33:50.412Z,11.00
2022-11-16T00:36:17.467Z,11.00
2022-11-16T00:38:44.611Z,11.00
2022-11-16T00:41:13.652Z,11.00
2022-11-16T00:43:40.399Z,10.90
2022-11-16T00:46:07.329Z,10.90
2022-11-16T00:48:34.347Z,10.90
2022-11-16T00:51:01.501Z,10.90
2022-11-16T00:53:28.494Z,10.90
2022-11-16T00:55:55.359Z,11.00
2022-11-16T00:58:22.326Z,10.90
2022-11-16T01:00:56.000Z,10.90
2022-11-16T01:03:24.427Z,10.90
2022-11-16T01:05:51.128Z,10.90
2022-11-16T01:08:19.002Z,11.00
2022-11-16T01:10:45.870Z,10.90
2022-11-16T01:13:12.698Z,10.80
2022-11-16T01:15:39.404Z,10.90
2022-11-16T01:18:06.152Z,10.90
2022-11-16T01:20:33.085Z,10.90
2022-11-16T01:22:59.834Z,10.90
2022-11-16T01:25:26.571Z,10.90
2022-11-16T01:27:54.524Z,10.80
2022-11-16T01:30:30.673Z,10.90
2022-11-16T01:33:02.363Z,10.90
2022-11-16T01:35:29.107Z,10.80
2022-11-16T01:37:55.866Z,10.80
2022-11-16T01:40:23.186Z,10.80
2022-11-16T01:42:49.938Z,10.80
2022-11-16T01:45:25.695Z,10.80
2022-11-16T01:47:55.890Z,10.80
2022-11-16T01:50:27.398Z,10.70
2022-11-16T01:53:04.215Z,10.70
2022-11-16T01:55:44.648Z,10.70
2022-11-16T01:58:20.697Z,10.80
2022-11-16T02:00:52.651Z,10.70
2022-11-16T02:03:31.084Z,10.70
2022-11-16T02:06:06.787Z,10.60
2022-11-16T02:09:15.532Z,10.60
2022-11-16T02:12:18.342Z,10.60
2022-11-16T02:15:08.023Z,10.70
2022-11-16T02:17:47.119Z,10.70
2022-11-16T02:20:20.443Z,10.70
2022-11-16T02:23:24.723Z,10.80
2022-11-16T02:25:51.859Z,10.70
2022-11-16T02:28:30.384Z,10.70
2022-11-16T02:30:59.862Z,10.70
2022-11-16T02:33:35.323Z,10.70
2022-11-16T02:36:08.782Z,10.70
2022-11-16T02:38:39.915Z,10.60
2022-11-16T02:41:14.057Z,10.60
2022-11-16T02:43:45.569Z,10.60
2022-11-16T02:46:27.427Z,10.60
2022-11-16T02:48:58.288Z,10.60
2022-11-16T02:51:28.319Z,10.60
2022-11-16T02:54:15.293Z,10.60
2022-11-16T02:57:16.877Z,10.70
2022-11-16T02:59:48.824Z,10.70
2022-11-16T03:02:33.289Z,10.70
2022-11-16T03:05:12.947Z,10.60
2022-11-16T03:07:53.244Z,10.60
2022-11-16T03:10:40.281Z,10.70
2022-11-16T03:13:11.559Z,10.70
2022-11-16T03:15:41.158Z,10.70
2022-11-16T03:18:14.043Z,10.60
2022-11-16T03:20:42.800Z,10.60
2022-11-16T03:23:12.166Z,10.50
2022-11-16T03:25:55.342Z,10.50
2022-11-16T03:28:27.411Z,10.50
2022-11-16T03:31:01.390Z,10.50
2022-11-16T03:33:34.351Z,10.40
2022-11-16T03:36:04.158Z,10.40
2022-11-16T03:38:34.840Z,10.50
2022-11-16T03:41:08.132Z,10.50
2022-11-16T03:43:36.788Z,10.50
2022-11-16T03:46:05.691Z,10.60
2022-11-16T03:48:38.062Z,10.50
2022-11-16T03:51:11.099Z,10.60
2022-11-16T03:53:39.736Z,10.60
2022-11-16T03:56:11.287Z,10.60
2022-11-16T03:58:41.886Z,10.60
2022-11-16T04:01:08.748Z,10.70
2022-11-16T04:03:35.571Z,10.60
2022-11-16T04:06:21.288Z,10.60
2022-11-16T04:09:07.674Z,10.60
2022-11-16T04:11:56.211Z,10.60
2022-11-16T04:14:43.951Z,10.60
2022-11-16T04:17:34.388Z,10.60
2022-11-16T04:20:19.864Z,10.60
2022-11-16T04:23:25.526Z,10.60
2022-11-16T04:25:52.988Z,10.60
2022-11-16T04:28:26.336Z,10.60
2022-11-16T04:31:20.830Z,10.60
2022-11-16T04:34:12.124Z,10.70
2022-11-16T04:37:03.161Z,10.70
2022-11-16T04:39:30.994Z,10.60
2022-11-16T04:42:16.190Z,10.60
2022-11-16T04:45:04.877Z,10.60
2022-11-16T04:47:37.735Z,10.60
2022-11-16T04:50:07.717Z,10.60
2022-11-16T04:52:34.712Z,10.60
2022-11-16T04:55:01.464Z,10.60
2022-11-16T04:57:28.982Z,10.60
2022-11-16T04:59:59.260Z,10.60
2022-11-16T05:02:26.428Z,10.60
2022-11-16T05:04:56.969Z,10.60
2022-11-16T05:07:25.337Z,10.60
2022-11-16T05:09:57.068Z,10.60
2022-11-16T05:12:27.581Z,10.60
2022-11-16T05:14:58.976Z,10.60
2022-11-16T05:17:28.642Z,10.60
2022-11-16T05:20:16.484Z,10.60
2022-11-16T05:23:03.824Z,10.60
2022-11-16T05:25:36.790Z,10.60
2022-11-16T05:28:06.869Z,10.60
2022-11-16T05:30:39.882Z,10.50
2022-11-16T05:33:06.845Z,10.50
2022-11-16T05:35:38.203Z,10.60
2022-11-16T05:38:05.025Z,10.50
2022-11-16T05:40:35.978Z,10.50
2022-11-16T05:43:02.940Z,10.50
2022-11-16T05:45:34.242Z,10.50
2022-11-16T05:48:01.734Z,10.60
2022-11-16T05:50:28.908Z,10.60
2022-11-16T05:53:09.005Z,10.60
2022-11-16T05:55:36.236Z,10.60
2022-11-16T05:58:02.979Z,10.60
2022-11-16T06:00:29.820Z,10.60
2022-11-16T06:02:57.964Z,10.60
2022-11-16T06:05:29.113Z,10.60
2022-11-16T06:07:59.158Z,10.60
2022-11-16T06:10:26.304Z,10.60
2022-11-16T06:12:54.083Z,10.50
2022-11-16T06:15:21.079Z,10.50
2022-11-16T06:17:47.957Z,10.50
2022-11-16T06:20:16.579Z,10.50
2022-11-16T06:22:44.518Z,10.50
2022-11-16T06:25:12.259Z,10.50
2022-11-16T06:27:42.353Z,10.50
2022-11-16T06:30:11.077Z,10.60
2022-11-16T06:32:39.946Z,10.60
2022-11-16T06:35:07.925Z,10.60
2022-11-16T06:37:34.765Z,10.60
2022-11-16T06:40:01.527Z,10.60
2022-11-16T06:42:32.323Z,10.60
2022-11-16T06:45:00.589Z,10.60
2022-11-16T06:47:31.325Z,10.50
2022-11-16T06:50:00.368Z,10.50
2022-11-16T06:52:27.310Z,10.50
2022-11-16T06:54:55.391Z,10.40
2022-11-16T06:57:22.336Z,10.40
2022-11-16T06:59:49.492Z,10.30
2022-11-16T07:02:16.646Z,10.20
2022-11-16T07:04:44.773Z,10.20
2022-11-16T07:07:11.509Z,10.20
2022-11-16T07:09:39.296Z,10.10
2022-11-16T07:12:06.126Z,10.10
2022-11-16T07:14:36.761Z,10.10
2022-11-16T07:17:09.473Z,10.00
2022-11-16T07:19:36.964Z,10.00
2022-11-16T07:22:04.632Z,10.00
2022-11-16T07:24:32.354Z,10.00
2022-11-16T07:26:59.306Z,10.00
2022-11-16T07:29:28.498Z,10.00
2022-11-16T07:32:08.481Z,10.00
2022-11-16T07:34:53.784Z,10.10
2022-11-16T07:37:21.357Z,10.10
2022-11-16T07:39:48.071Z,10.20
2022-11-16T07:42:15.447Z,10.20
2022-11-16T07:44:50.431Z,10.20
2022-11-16T07:47:17.119Z,10.30
2022-11-16T07:49:43.821Z,10.30
2022-11-16T07:52:16.553Z,10.40
2022-11-16T07:54:51.411Z,10.40
2022-11-16T07:57:19.412Z,10.50
2022-11-16T07:59:47.006Z,10.50
2022-11-16T08:02:13.826Z,10.60
2022-11-16T08:04:43.160Z,10.60
2022-11-16T08:07:10.197Z,10.70
2022-11-16T08:09:43.769Z,10.80
2022-11-16T08:12:14.423Z,10.80
2022-11-16T08:14:41.193Z,11.00
2022-11-16T08:17:08.428Z,11.20
2022-11-16T08:19:37.486Z,11.40
2022-11-16T08:22:04.869Z,11.50
2022-11-16T08:24:33.358Z,11.50
2022-11-16T08:27:00.734Z,11.60
2022-11-16T08:29:27.687Z,11.60
2022-11-16T08:31:57.049Z,11.60
2022-11-16T08:34:24.472Z,11.60
2022-11-16T08:36:56.182Z,11.60
2022-11-16T08:39:29.074Z,11.70
2022-11-16T08:41:55.819Z,11.80
2022-11-16T08:44:22.941Z,11.80
2022-11-16T08:46:53.410Z,11.90
2022-11-16T08:49:37.641Z,11.90
2022-11-16T08:52:05.126Z,12.00
2022-11-16T08:54:32.720Z,11.90
2022-11-16T08:56:59.762Z,11.90
2022-11-16T08:59:28.550Z,11.90
2022-11-16T09:01:59.651Z,12.00
2022-11-16T09:04:29.600Z,12.00
2022-11-16T09:06:58.309Z,11.90
2022-11-16T09:09:25.665Z,11.80
2022-11-16T09:11:54.872Z,11.90
2022-11-16T09:14:24.482Z,11.90
2022-11-16T09:16:51.266Z,11.80
2022-11-16T09:19:18.131Z,11.90
2022-11-16T09:21:45.640Z,11.90
2022-11-16T09:24:12.772Z,12.00
2022-11-16T09:26:39.535Z,12.10
2022-11-16T09:29:06.280Z,12.30
2022-11-16T09:31:37.375Z,12.30
2022-11-16T09:34:04.403Z,12.20
2022-11-16T09:36:31.713Z,12.20
2022-11-16T09:39:29.992Z,12.20
2022-11-16T09:42:08.262Z,12.20
2022-11-16T09:45:04.603Z,12.30
2022-11-16T09:47:51.017Z,12.20
2022-11-16T09:50:58.250Z,12.10
2022-11-16T09:53:28.003Z,12.00
2022-11-16T09:55:59.098Z,12.10
2022-11-16T09:58:49.992Z,12.20
2022-11-16T10:01:26.562Z,12.30
2022-11-16T10:04:20.115Z,12.50
2022-11-16T10:07:12.560Z,12.50
2022-11-16T10:09:39.354Z,12.50
2022-11-16T10:12:37.592Z,12.40
2022-11-16T10:15:35.250Z,12.50
2022-11-16T10:18:07.991Z,12.40
2022-11-16T10:20:55.299Z,12.40
2022-11-16T10:23:28.395Z,12.60
2022-11-16T10:26:11.883Z,12.50
2022-11-16T10:28:53.599Z,12.50
2022-11-16T10:31:38.819Z,12.60
2022-11-16T10:34:09.504Z,12.70
2022-11-16T10:36:38.365Z,12.80
2022-11-16T10:39:18.267Z,12.80
2022-11-16T10:41:51.219Z,12.90
2022-11-16T10:44:33.939Z,13.10
2022-11-16T10:47:09.762Z,13.10
2022-11-16T10:49:40.029Z,13.20
2022-11-16T10:52:07.039Z,13.20
2022-11-16T10:54:34.129Z,13.30
2022-11-16T10:57:08.842Z,13.30
2022-11-16T10:59:45.135Z,13.40
2022-11-16T11:02:20.937Z,13.30
2022-11-16T11:05:17.446Z,13.30
2022-11-16T11:07:49.222Z,13.10
2022-11-16T11:10:38.782Z,12.90
2022-11-16T11:13:11.295Z,12.70
2022-11-16T11:15:42.801Z,12.60
2022-11-16T11:18:24.821Z,12.40
2022-11-16T11:21:19.269Z,12.30
2022-11-16T11:23:50.727Z,12.30
2022-11-16T11:26:37.132Z,12.20
2022-11-16T11:29:20.296Z,12.30
2022-11-16T11:31:50.584Z,12.20
2022-11-16T11:34:32.190Z,12.30
2022-11-16T11:37:02.807Z,12.50
2022-11-16T11:39:37.553Z,12.60
2022-11-16T11:42:22.218Z,12.80
2022-11-16T11:44:58.547Z,13.00
2022-11-16T11:47:59.541Z,13.10
2022-11-16T11:50:47.977Z,13.30
2022-11-16T11:53:49.798Z,13.40
2022-11-16T11:56:18.501Z,13.30
2022-11-16T11:58:48.181Z,13.30
2022-11-16T12:01:48.612Z,13.30
2022-11-16T12:04:52.975Z,13.40
2022-11-16T12:07:32.577Z,13.30
2022-11-16T12:10:20.462Z,13.30
2022-11-16T12:13:19.666Z,13.40
2022-11-16T12:16:11.289Z,13.50
2022-11-16T12:19:00.169Z,13.50
2022-11-16T12:21:35.867Z,13.60
2022-11-16T12:24:10.113Z,13.60
2022-11-16T12:26:46.104Z,13.70
2022-11-16T12:29:19.122Z,13.70
2022-11-16T12:31:57.850Z,13.60
2022-11-16T12:34:43.399Z,13.50
2022-11-16T12:37:16.229Z,13.40
2022-11-16T12:40:06.301Z,13.20
2022-11-16T12:42:50.298Z,13.10
2022-11-16T12:45:41.542Z,13.00
2022-11-16T12:48:34.270Z,12.90
2022-11-16T12:51:31.584Z,12.90
2022-11-16T12:54:23.169Z,12.90
2022-11-16T12:57:11.977Z,13.00
2022-11-16T13:00:07.357Z,13.00
2022-11-16T13:03:00.116Z,13.00
2022-11-16T13:05:55.647Z,13.10
2022-11-16T13:08:41.840Z,13.20
2022-11-16T13:11:22.743Z,13.40
2022-11-16T13:13:55.468Z,13.60
2022-11-16T13:16:24.112Z,13.80
2022-11-16T13:18:52.256Z,13.90
2022-11-16T13:21:28.695Z,14.00
2022-11-16T13:24:20.700Z,14.00
2022-11-16T13:27:12.322Z,14.00
2022-11-16T13:30:24.593Z,14.00
2022-11-16T13:33:12.404Z,13.80
2022-11-16T13:35:39.473Z,13.80
2022-11-16T13:38:12.583Z,13.60
2022-11-16T13:40:40.261Z,13.50
2022-11-16T13:43:10.063Z,13.50
2022-11-16T13:45:48.711Z,13.40
2022-11-16T13:48:35.245Z,13.40
2022-11-16T13:51:09.044Z,13.50
2022-11-16T13:56:48.586Z,13.40
2022-11-16T13:59:22.669Z,13.30
2022-11-16T14:02:06.200Z,13.30
2022-11-16T14:04:38.693Z,13.40
2022-11-16T14:07:05.420Z,13.30
2022-11-16T14:09:46.996Z,13.30
2022-11-16T14:12:38.797Z,13.30
2022-11-16T14:15:29.888Z,13.30
2022-11-16T14:17:58.782Z,13.30
2022-11-16T14:20:37.915Z,13.30
2022-11-16T14:23:31.766Z,13.30
2022-11-16T14:26:20.449Z,13.20
2022-11-16T14:29:12.582Z,13.20
2022-11-16T14:32:00.951Z,13.10
2022-11-16T14:34:40.458Z,13.10
2022-11-16T14:37:14.095Z,13.00
2022-11-16T14:39:43.558Z,13.00
2022-11-16T14:42:48.439Z,13.10
2022-11-16T14:45:29.175Z,13.10
2022-11-16T14:48:00.966Z,13.10
2022-11-16T14:50:28.009Z,13.20
2022-11-16T14:52:59.529Z,13.30
2022-11-16T14:55:27.185Z,13.30
2022-11-16T14:58:17.060Z,13.40
2022-11-16T15:00:54.833Z,13.30
2022-11-16T15:03:23.724Z,13.40
2022-11-16T15:05:50.772Z,13.40
2022-11-16T15:08:23.017Z,13.30
2022-11-16T15:10:52.569Z,13.30
2022-11-16T15:13:22.686Z,13.20
2022-11-16T15:15:50.386Z,13.20
2022-11-16T15:18:20.501Z,13.20
2022-11-16T15:20:50.744Z,13.10
2022-11-16T15:23:19.388Z,12.90
2022-11-16T15:25:57.208Z,12.80
2022-11-16T15:28:26.786Z,12.60
2022-11-16T15:30:59.338Z,12.50
2022-11-16T15:33:30.514Z,12.30
2022-11-16T15:35:57.845Z,12.20
2022-11-16T15:38:32.534Z,12.00
2022-11-16T15:41:00.265Z,11.80
2022-11-16T15:43:32.828Z,11.70
2022-11-16T15:46:01.117Z,11.60
2022-11-16T15:48:28.641Z,11.50
2022-11-16T15:51:04.046Z,11.30
2022-11-16T15:53:40.412Z,11.20
2022-11-16T15:56:24.987Z,11.10
2022-11-16T15:58:53.797Z,11.00
2022-11-16T16:01:21.639Z,10.90
2022-11-16T16:03:58.554Z,10.80
2022-11-16T16:06:54.117Z,10.80
2022-11-16T16:09:25.439Z,10.70
2022-11-16T16:11:54.049Z,10.70
2022-11-16T16:14:27.839Z,10.70
2022-11-16T16:17:00.924Z,10.70
2022-11-16T16:19:32.543Z,10.70
2022-11-16T16:21:59.714Z,10.70
2022-11-16T16:24:42.792Z,10.60
2022-11-16T16:27:13.279Z,10.60
2022-11-16T16:29:40.447Z,10.60
2022-11-16T16:32:15.416Z,10.50
2022-11-16T16:34:42.615Z,10.40
2022-11-16T16:37:11.864Z,10.30
2022-11-16T16:39:39.848Z,10.20
2022-11-16T16:42:12.288Z,10.20
2022-11-16T16:44:40.090Z,10.30
2022-11-16T16:47:06.890Z,10.20
2022-11-16T16:49:33.836Z,10.30
2022-11-16T16:52:00.875Z,10.20
2022-11-16T16:54:28.616Z,10.20
2022-11-16T16:56:56.874Z,10.20
2022-11-16T16:59:24.680Z,10.30
2022-11-16T17:01:51.822Z,10.40
2022-11-16T17:04:18.834Z,10.50
2022-11-16T17:06:46.682Z,10.50
2022-11-16T17:09:13.997Z,10.60
2022-11-16T17:11:40.915Z,10.60
2022-11-16T17:14:08.121Z,10.60
2022-11-16T17:16:35.533Z,10.60
2022-11-16T17:19:03.869Z,10.60
2022-11-16T17:21:31.183Z,10.60
2022-11-16T17:23:58.214Z,10.60
2022-11-16T17:26:29.116Z,10.60
2022-11-16T17:28:57.553Z,10.50
2022-11-16T17:31:25.888Z,10.50
2022-11-16T17:33:52.913Z,10.50
2022-11-16T17:36:20.067Z,10.50
2022-11-16T17:38:47.243Z,10.50
2022-11-16T17:41:15.364Z,10.50
2022-11-16T17:43:43.558Z,10.50
2022-11-16T17:46:12.495Z,10.60
2022-11-16T17:48:42.251Z,10.60
2022-11-16T17:51:13.937Z,10.60
2022-11-16T17:53:40.957Z,10.60
2022-11-16T17:56:08.095Z,10.60
2022-11-16T17:58:34.894Z,10.60
2022-11-16T18:01:02.269Z,10.60
2022-11-16T18:03:29.179Z,10.50
2022-11-16T18:06:07.542Z,10.50
2022-11-16T18:08:35.580Z,10.50
2022-11-16T18:11:12.817Z,10.50
2022-11-16T18:13:40.374Z,10.50
2022-11-16T18:16:12.537Z,10.50
2022-11-16T18:18:41.905Z,10.50
2022-11-16T18:21:09.677Z,10.60
2022-11-16T18:23:37.839Z,10.60
2022-11-16T18:26:24.179Z,10.60
2022-11-16T18:28:52.435Z,10.50
2022-11-16T18:31:22.465Z,10.60
2022-11-16T18:33:49.659Z,10.60
2022-11-16T18:36:17.498Z,10.60
2022-11-16T18:38:44.765Z,10.60
2022-11-16T18:41:11.617Z,10.60
2022-11-16T18:43:40.857Z,10.70
2022-11-16T18:46:08.565Z,10.70
2022-11-16T18:48:35.387Z,10.60
2022-11-16T18:51:04.311Z,10.60
2022-11-16T18:53:32.812Z,10.70
2022-11-16T18:55:59.945Z,10.70
2022-11-16T19:01:16.274Z,10.60
2022-11-16T19:03:43.661Z,10.60
2022-11-16T19:06:11.341Z,10.60
2022-11-16T19:08:39.680Z,10.60
2022-11-16T19:11:14.621Z,10.60
2022-11-16T19:13:43.541Z,10.60
2022-11-16T19:16:11.878Z,10.60
2022-11-16T19:18:39.328Z,10.60
2022-11-16T19:21:13.680Z,10.60
2022-11-16T19:23:49.300Z,10.60
2022-11-16T19:26:17.749Z,10.60
2022-11-16T19:28:49.372Z,10.60
2022-11-16T19:31:20.638Z,10.60
2022-11-16T19:33:47.682Z,10.60
2022-11-16T19:36:19.524Z,10.60
2022-11-16T19:38:47.520Z,10.60
2022-11-16T19:41:16.271Z,10.60
2022-11-16T19:43:43.227Z,10.50
2022-11-16T19:46:12.334Z,10.50
2022-11-16T19:48:39.473Z,10.50
2022-11-16T19:51:08.516Z,10.50
2022-11-16T19:53:35.826Z,10.60
2022-11-16T19:56:04.071Z,10.60
2022-11-16T19:58:32.133Z,10.60
2022-11-16T20:01:03.298Z,10.50
2022-11-16T20:03:31.201Z,10.60
2022-11-16T20:06:06.323Z,10.60
2022-11-16T20:08:33.005Z,10.60
2022-11-16T20:10:59.950Z,10.60
2022-11-16T20:13:26.672Z,10.60
2022-11-16T20:15:53.353Z,10.50
2022-11-16T20:18:20.134Z,10.40
2022-11-16T20:20:46.884Z,10.30
2022-11-16T20:23:15.601Z,10.30
2022-11-16T20:25:42.459Z,10.30
2022-11-16T20:28:09.513Z,10.20
2022-11-16T20:30:36.258Z,10.20
2022-11-16T20:33:02.920Z,10.20
2022-11-16T20:35:29.847Z,10.20
2022-11-16T20:37:56.537Z,10.10
2022-11-16T20:40:23.288Z,10.10
2022-11-16T20:42:50.080Z,10.10
2022-11-16T20:45:16.775Z,10.00
2022-11-16T20:47:43.639Z,10.00
2022-11-16T20:50:10.404Z,10.10
2022-11-16T20:52:42.645Z,10.00
2022-11-16T20:55:10.645Z,10.00
2022-11-16T20:57:37.580Z,10.00
2022-11-16T21:00:05.111Z,10.10
2022-11-16T21:02:31.801Z,10.10
2022-11-16T21:05:00.386Z,10.10
2022-11-16T21:07:28.195Z,10.10
2022-11-16T21:10:13.645Z,10.10
2022-11-16T21:12:59.364Z,10.10
2022-11-16T21:15:26.041Z,10.10
2022-11-16T21:17:52.743Z,10.10
2022-11-16T21:20:28.157Z,10.00
2022-11-16T21:22:55.444Z,10.00
2022-11-16T21:25:22.123Z,10.10
2022-11-16T21:27:48.937Z,10.10
2022-11-16T21:30:16.064Z,10.10
2022-11-16T21:32:42.765Z,10.10
2022-11-16T21:35:09.494Z,10.00
2022-11-16T21:37:36.188Z,10.00
2022-11-16T21:40:03.305Z,10.10
2022-11-16T21:42:30.234Z,10.00
2022-11-16T21:44:57.030Z,10.10
2022-11-16T21:47:24.150Z,10.00
2022-11-16T21:50:16.860Z,10.00
2022-11-16T21:52:37.754Z,10.00
2022-11-16T21:55:04.794Z,10.00
2022-11-16T21:57:31.485Z,10.00
2022-11-16T21:59:58.172Z,10.00
2022-11-16T22:02:25.070Z,10.00
2022-11-16T22:05:10.465Z,9.90
2022-11-16T22:07:37.354Z,9.90
2022-11-16T22:10:05.742Z,9.90
2022-11-16T22:12:33.110Z,10.00
2022-11-16T22:15:00.039Z,10.00
2022-11-16T22:17:27.980Z,10.10
2022-11-16T22:19:54.975Z,10.10
2022-11-16T22:22:21.719Z,10.10
2022-11-16T22:24:48.724Z,10.10
2022-11-16T22:27:16.534Z,10.00
2022-11-16T22:29:43.472Z,10.10
2022-11-16T22:32:10.757Z,10.00
2022-11-16T22:34:37.553Z,10.00
2022-11-16T22:37:04.294Z,10.10
2022-11-16T22:39:31.010Z,10.00
2022-11-16T22:41:57.888Z,10.10
2022-11-16T22:44:24.795Z,10.00
2022-11-16T22:46:52.600Z,9.90
2022-11-16T22:49:19.616Z,10.00
2022-11-16T22:51:46.330Z,10.00
2022-11-16T22:54:15.582Z,10.00
2022-11-16T22:56:42.847Z,10.10
2022-11-16T22:59:09.951Z,10.10
2022-11-16T23:01:37.320Z,10.10
2022-11-16T23:04:04.400Z,10.00
2022-11-16T23:06:31.319Z,10.00
2022-11-16T23:08:58.272Z,10.00
2022-11-16T23:11:44.497Z,10.00
2022-11-16T23:14:33.533Z,10.10
2022-11-16T23:17:01.177Z,10.10
2022-11-16T23:19:47.044Z,10.10
2022-11-16T23:22:38.441Z,10.10
2022-11-16T23:25:26.671Z,10.20
2022-11-16T23:28:18.967Z,10.10
2022-11-16T23:30:45.941Z,10.00
2022-11-16T23:33:12.710Z,10.10
2022-11-16T23:35:39.653Z,10.10
2022-11-16T23:38:07.792Z,10.00
2022-11-16T23:40:39.480Z,10.00
2022-11-16T23:43:25.206Z,9.90
2022-11-16T23:45:52.084Z,9.90
2022-11-16T23:48:19.140Z,9.90
2022-11-16T23:50:46.673Z,9.80
2022-11-16T23:53:14.363Z,9.80
2022-11-16T23:55:41.423Z,9.80
2022-11-16T23:58:13.492Z,9.80
